sensor_id;sensor_type;location;lat;lon;timestamp;pressure;altitude;pressure_sealevel;temperature;humidity
80321;BME280;69633;47.066;15.450;2024-02-23T00:00:36;96005.66;;;11.33;58.90
80321;BME280;69633;47.066;15.450;2024-02-23T00:03:02;95996.91;;;11.29;59.48
80321;BME280;69633;47.066;15.450;2024-02-23T00:05:28;95989.72;;;11.33;59.54
80321;BME280;69633;47.066;15.450;2024-02-23T00:07:54;95984.78;;;11.28;59.72
80321;BME280;69633;47.066;15.450;2024-02-23T00:10:20;95987.81;;;11.30;60.51
80321;BME280;69633;47.066;15.450;2024-02-23T00:12:46;95985.13;;;11.26;60.29
80321;BME280;69633;47.066;15.450;2024-02-23T00:15:16;95988.94;;;11.29;60.68
80321;BME280;69633;47.066;15.450;2024-02-23T00:17:42;95990.84;;;11.25;60.84
80321;BME280;69633;47.066;15.450;2024-02-23T00:20:09;95987.41;;;11.21;60.81
80321;BME280;69633;47.066;15.450;2024-02-23T00:22:38;95982.72;;;11.03;60.66
80321;BME280;69633;47.066;15.450;2024-02-23T00:25:04;95973.63;;;11.04;61.82
80321;BME280;69633;47.066;15.450;2024-02-23T00:27:32;95974.78;;;11.10;61.09
80321;BME280;69633;47.066;15.450;2024-02-23T00:29:59;95976.69;;;11.10;61.34
80321;BME280;69633;47.066;15.450;2024-02-23T00:32:25;95970.59;;;11.06;61.86
80321;BME280;69633;47.066;15.450;2024-02-23T00:34:50;95980.03;;;11.00;61.78
80321;BME280;69633;47.066;15.450;2024-02-23T00:37:17;95974.38;;;11.01;62.23
80321;BME280;69633;47.066;15.450;2024-02-23T00:39:43;95985.78;;;11.05;62.14
80321;BME280;69633;47.066;15.450;2024-02-23T00:42:10;95974.41;;;11.08;62.01
80321;BME280;69633;47.066;15.450;2024-02-23T00:44:35;95982.69;;;11.00;62.12
80321;BME280;69633;47.066;15.450;2024-02-23T00:47:06;95988.66;;;10.86;62.18
80321;BME280;69633;47.066;15.450;2024-02-23T00:49:31;95990.88;;;10.77;63.34
80321;BME280;69633;47.066;15.450;2024-02-23T00:51:59;95994.34;;;10.85;62.81
80321;BME280;69633;47.066;15.450;2024-02-23T00:54:26;95976.59;;;10.96;62.51
80321;BME280;69633;47.066;15.450;2024-02-23T00:56:52;95985.72;;;10.98;62.66
80321;BME280;69633;47.066;15.450;2024-02-23T00:59:18;95985.78;;;11.05;62.01
80321;BME280;69633;47.066;15.450;2024-02-23T01:01:44;95985.00;;;11.05;62.76
80321;BME280;69633;47.066;15.450;2024-02-23T01:04:10;95980.81;;;11.04;62.04
80321;BME280;69633;47.066;15.450;2024-02-23T01:06:37;95988.44;;;11.05;62.71
80321;BME280;69633;47.066;15.450;2024-02-23T01:09:04;95995.56;;;10.94;63.55
80321;BME280;69633;47.066;15.450;2024-02-23T01:11:30;95996.28;;;10.91;63.15
80321;BME280;69633;47.066;15.450;2024-02-23T01:13:55;95998.13;;;10.84;64.42
80321;BME280;69633;47.066;15.450;2024-02-23T01:16:21;95994.00;;;10.90;64.09
80321;BME280;69633;47.066;15.450;2024-02-23T01:18:48;95994.44;;;10.99;65.08
80321;BME280;69633;47.066;15.450;2024-02-23T01:21:13;95990.69;;;11.03;64.57
80321;BME280;69633;47.066;15.450;2024-02-23T01:23:40;95991.13;;;11.09;64.80
80321;BME280;69633;47.066;15.450;2024-02-23T01:26:07;95996.41;;;11.05;65.68
80321;BME280;69633;47.066;15.450;2024-02-23T01:28:35;95996.00;;;11.03;65.24
80321;BME280;69633;47.066;15.450;2024-02-23T01:31:00;96001.69;;;11.02;65.49
80321;BME280;69633;47.066;15.450;2024-02-23T01:33:26;95997.13;;;11.02;66.36
80321;BME280;69633;47.066;15.450;2024-02-23T01:35:52;95992.16;;;10.97;67.13
80321;BME280;69633;47.066;15.450;2024-02-23T01:38:17;95999.66;;;10.88;67.49
80321;BME280;69633;47.066;15.450;2024-02-23T01:40:47;96003.44;;;10.87;68.18
80321;BME280;69633;47.066;15.450;2024-02-23T01:43:13;96001.56;;;10.88;68.25
80321;BME280;69633;47.066;15.450;2024-02-23T01:45:39;95997.00;;;10.88;68.27
80321;BME280;69633;47.066;15.450;2024-02-23T01:48:07;95998.53;;;10.89;67.58
80321;BME280;69633;47.066;15.450;2024-02-23T01:50:34;96010.22;;;10.81;68.09
80321;BME280;69633;47.066;15.450;2024-02-23T01:53:02;96006.06;;;10.84;68.39
80321;BME280;69633;47.066;15.450;2024-02-23T01:55:28;96006.47;;;10.82;70.03
80321;BME280;69633;47.066;15.450;2024-02-23T01:57:56;96003.78;;;10.79;70.48
80321;BME280;69633;47.066;15.450;2024-02-23T02:00:24;96001.44;;;10.74;69.37
80321;BME280;69633;47.066;15.450;2024-02-23T02:02:51;96000.69;;;10.73;69.68
80321;BME280;69633;47.066;15.450;2024-02-23T02:05:17;96004.41;;;10.65;70.41
80321;BME280;69633;47.066;15.450;2024-02-23T02:07:45;96007.78;;;10.62;70.30
80321;BME280;69633;47.066;15.450;2024-02-23T02:10:12;95999.06;;;10.61;70.74
80321;BME280;69633;47.066;15.450;2024-02-23T02:12:38;95994.94;;;10.64;71.66
80321;BME280;69633;47.066;15.450;2024-02-23T02:15:05;96000.91;;;10.57;72.21
80321;BME280;69633;47.066;15.450;2024-02-23T02:17:32;96005.88;;;10.59;71.23
80321;BME280;69633;47.066;15.450;2024-02-23T02:20:03;95994.06;;;10.53;72.45
80321;BME280;69633;47.066;15.450;2024-02-23T02:22:35;95997.44;;;10.50;72.79
80321;BME280;69633;47.066;15.450;2024-02-23T02:25:02;96007.28;;;10.46;73.25
80321;BME280;69633;47.066;15.450;2024-02-23T02:27:29;95993.63;;;10.47;73.51
80321;BME280;69633;47.066;15.450;2024-02-23T02:29:57;95992.81;;;10.40;73.33
80321;BME280;69633;47.066;15.450;2024-02-23T02:32:24;95987.88;;;10.38;73.51
80321;BME280;69633;47.066;15.450;2024-02-23T02:34:51;95979.94;;;10.38;73.53
80321;BME280;69633;47.066;15.450;2024-02-23T02:37:17;95989.72;;;10.31;72.89
80321;BME280;69633;47.066;15.450;2024-02-23T02:39:44;95993.47;;;10.30;72.91
80321;BME280;69633;47.066;15.450;2024-02-23T02:42:11;95990.25;;;10.13;73.90
80321;BME280;69633;47.066;15.450;2024-02-23T02:44:37;95999.25;;;10.05;73.59
80321;BME280;69633;47.066;15.450;2024-02-23T02:47:04;95992.44;;;10.04;74.78
80321;BME280;69633;47.066;15.450;2024-02-23T02:49:32;95990.91;;;10.03;74.99
80321;BME280;69633;47.066;15.450;2024-02-23T02:51:57;95997.31;;;10.02;76.10
80321;BME280;69633;47.066;15.450;2024-02-23T02:54:22;95988.56;;;9.98;75.98
80321;BME280;69633;47.066;15.450;2024-02-23T02:56:48;95987.78;;;9.98;74.82
80321;BME280;69633;47.066;15.450;2024-02-23T02:59:16;95994.59;;;9.95;75.83
80321;BME280;69633;47.066;15.450;2024-02-23T03:01:43;95990.03;;;9.92;75.75
80321;BME280;69633;47.066;15.450;2024-02-23T03:04:08;95992.72;;;9.96;75.79
80321;BME280;69633;47.066;15.450;2024-02-23T03:06:34;95994.59;;;9.95;75.94
80321;BME280;69633;47.066;15.450;2024-02-23T03:08:59;95999.94;;;9.99;74.62
80321;BME280;69633;47.066;15.450;2024-02-23T03:11:24;96000.78;;;10.06;74.77
80321;BME280;69633;47.066;15.450;2024-02-23T03:13:50;96007.19;;;10.05;75.25
80321;BME280;69633;47.066;15.450;2024-02-23T03:16:16;95999.16;;;9.98;75.33
80321;BME280;69633;47.066;15.450;2024-02-23T03:18:42;95999.56;;;10.00;74.99
80321;BME280;69633;47.066;15.450;2024-02-23T03:21:07;95994.34;;;10.07;74.84
80321;BME280;69633;47.066;15.450;2024-02-23T03:23:35;95989.81;;;10.08;74.19
80321;BME280;69633;47.066;15.450;2024-02-23T03:26:00;95991.75;;;10.11;73.96
80321;BME280;69633;47.066;15.450;2024-02-23T03:28:25;95997.03;;;10.11;73.59
80321;BME280;69633;47.066;15.450;2024-02-23T03:30:51;95993.63;;;10.10;74.00
80321;BME280;69633;47.066;15.450;2024-02-23T03:33:17;95995.13;;;10.08;73.96
80321;BME280;69633;47.066;15.450;2024-02-23T03:35:42;95990.59;;;10.08;74.56
80321;BME280;69633;47.066;15.450;2024-02-23T03:38:07;95992.50;;;10.11;73.79
80321;BME280;69633;47.066;15.450;2024-02-23T03:40:33;95991.75;;;10.11;73.92
80321;BME280;69633;47.066;15.450;2024-02-23T03:43:01;95997.03;;;10.11;74.05
80321;BME280;69633;47.066;15.450;2024-02-23T03:45:27;96006.84;;;10.07;75.47
80321;BME280;69633;47.066;15.450;2024-02-23T03:47:52;96004.06;;;9.96;75.66
80321;BME280;69633;47.066;15.450;2024-02-23T03:50:18;96001.66;;;9.84;75.89
80321;BME280;69633;47.066;15.450;2024-02-23T03:52:43;96017.16;;;9.82;76.33
80321;BME280;69633;47.066;15.450;2024-02-23T03:55:09;96014.91;;;9.84;76.51
80321;BME280;69633;47.066;15.450;2024-02-23T03:57:34;96021.00;;;9.88;76.32
80321;BME280;69633;47.066;15.450;2024-02-23T03:59:59;96021.81;;;9.92;77.13
80321;BME280;69633;47.066;15.450;2024-02-23T04:02:25;96026.13;;;10.04;75.52
80321;BME280;69633;47.066;15.450;2024-02-23T04:04:51;96018.53;;;10.02;74.17
80321;BME280;69633;47.066;15.450;2024-02-23T04:07:16;96023.50;;;10.07;74.90
80321;BME280;69633;47.066;15.450;2024-02-23T04:09:42;96025.75;;;10.05;76.42
80321;BME280;69633;47.066;15.450;2024-02-23T04:12:07;96033.22;;;9.96;75.54
80321;BME280;69633;47.066;15.450;2024-02-23T04:14:33;96033.84;;;9.86;75.76
80321;BME280;69633;47.066;15.450;2024-02-23T04:17:03;96033.09;;;9.86;75.94
80321;BME280;69633;47.066;15.450;2024-02-23T04:19:28;96038.44;;;9.89;75.81
80321;BME280;69633;47.066;15.450;2024-02-23T04:21:54;96030.88;;;9.91;74.85
80321;BME280;69633;47.066;15.450;2024-02-23T04:24:20;96034.66;;;9.90;75.15
80321;BME280;69633;47.066;15.450;2024-02-23T04:26:45;96036.19;;;9.91;75.36
80321;BME280;69633;47.066;15.450;2024-02-23T04:29:11;96041.56;;;9.98;74.19
80321;BME280;69633;47.066;15.450;2024-02-23T04:31:38;96045.03;;;10.02;75.01
80321;BME280;69633;47.066;15.450;2024-02-23T04:34:03;96033.63;;;9.98;74.15
80321;BME280;69633;47.066;15.450;2024-02-23T04:36:29;96046.06;;;9.94;74.65
80321;BME280;69633;47.066;15.450;2024-02-23T04:38:55;96047.91;;;9.90;75.27
80321;BME280;69633;47.066;15.450;2024-02-23T04:41:22;96053.78;;;9.77;76.63
80321;BME280;69633;47.066;15.450;2024-02-23T04:43:48;96054.00;;;9.64;77.50
80321;BME280;69633;47.066;15.450;2024-02-23T04:46:13;96053.88;;;9.54;78.36
80321;BME280;69633;47.066;15.450;2024-02-23T04:48:39;96043.19;;;9.47;78.71
80321;BME280;69633;47.066;15.450;2024-02-23T04:51:04;96054.34;;;9.59;78.15
80321;BME280;69633;47.066;15.450;2024-02-23T04:53:31;96073.00;;;9.70;77.36
80321;BME280;69633;47.066;15.450;2024-02-23T04:55:58;96072.19;;;9.66;77.91
80321;BME280;69633;47.066;15.450;2024-02-23T04:58:23;96072.09;;;9.59;78.40
80321;BME280;69633;47.066;15.450;2024-02-23T05:00:49;96076.59;;;9.55;77.98
80321;BME280;69633;47.066;15.450;2024-02-23T05:03:14;96070.53;;;9.54;77.90
80321;BME280;69633;47.066;15.450;2024-02-23T05:05:41;96075.88;;;9.58;78.50
80321;BME280;69633;47.066;15.450;2024-02-23T05:08:07;96076.63;;;9.58;78.18
80321;BME280;69633;47.066;15.450;2024-02-23T05:10:33;96076.97;;;9.57;78.41
80321;BME280;69633;47.066;15.450;2024-02-23T05:13:00;96070.88;;;9.53;78.71
80321;BME280;69633;47.066;15.450;2024-02-23T05:15:26;96079.13;;;9.48;79.23
80321;BME280;69633;47.066;15.450;2024-02-23T05:17:52;96080.06;;;9.33;79.86
80321;BME280;69633;47.066;15.450;2024-02-23T05:20:17;96070.81;;;9.23;79.92
80321;BME280;69633;47.066;15.450;2024-02-23T05:22:45;96085.81;;;9.15;80.29
80321;BME280;69633;47.066;15.450;2024-02-23T05:25:11;96084.41;;;9.21;80.21
80321;BME280;69633;47.066;15.450;2024-02-23T05:27:37;96082.16;;;9.23;80.42
80321;BME280;69633;47.066;15.450;2024-02-23T05:30:03;96092.41;;;9.25;79.68
80321;BME280;69633;47.066;15.450;2024-02-23T05:32:29;96088.94;;;9.21;80.24
80321;BME280;69633;47.066;15.450;2024-02-23T05:34:54;96079.81;;;9.18;80.40
80321;BME280;69633;47.066;15.450;2024-02-23T05:37:22;96074.41;;;9.11;80.31
80321;BME280;69633;47.066;15.450;2024-02-23T05:39:47;96091.72;;;9.05;81.23
80321;BME280;69633;47.066;15.450;2024-02-23T05:42:13;96082.56;;;8.99;79.98
80321;BME280;69633;47.066;15.450;2024-02-23T05:44:38;96077.25;;;8.99;81.12
80321;BME280;69633;47.066;15.450;2024-02-23T05:47:05;96070.44;;;8.98;80.69
80321;BME280;69633;47.066;15.450;2024-02-23T05:49:31;96085.25;;;9.03;80.38
80321;BME280;69633;47.066;15.450;2024-02-23T05:51:56;96083.25;;;8.96;79.82
80321;BME280;69633;47.066;15.450;2024-02-23T05:54:22;96073.69;;;8.88;80.15
80321;BME280;69633;47.066;15.450;2024-02-23T05:56:47;96076.25;;;8.85;80.44
80321;BME280;69633;47.066;15.450;2024-02-23T05:59:13;96078.53;;;8.86;80.71
80321;BME280;69633;47.066;15.450;2024-02-23T06:01:38;96077.06;;;8.89;80.69
80321;BME280;69633;47.066;15.450;2024-02-23T06:04:03;96070.22;;;8.84;80.58
80321;BME280;69633;47.066;15.450;2024-02-23T06:06:29;96062.56;;;8.79;80.86
80321;BME280;69633;47.066;15.450;2024-02-23T06:08:54;96077.00;;;8.85;80.35
80321;BME280;69633;47.066;15.450;2024-02-23T06:11:20;96078.97;;;8.88;80.73
80321;BME280;69633;47.066;15.450;2024-02-23T06:13:47;96084.00;;;8.97;80.28
80321;BME280;69633;47.066;15.450;2024-02-23T06:16:12;96093.19;;;9.03;79.87
80321;BME280;69633;47.066;15.450;2024-02-23T06:18:38;96102.28;;;9.05;79.72
80321;BME280;69633;47.066;15.450;2024-02-23T06:23:39;96093.81;;;8.96;79.97
80321;BME280;69633;47.066;15.450;2024-02-23T06:26:06;96099.59;;;9.02;79.68
80321;BME280;69633;47.066;15.450;2024-02-23T06:28:33;96103.72;;;8.99;79.78
80321;BME280;69633;47.066;15.450;2024-02-23T06:30:58;96111.16;;;8.94;79.04
80321;BME280;69633;47.066;15.450;2024-02-23T06:33:24;96100.88;;;8.89;79.25
80321;BME280;69633;47.066;15.450;2024-02-23T06:35:50;96101.53;;;8.82;79.77
80321;BME280;69633;47.066;15.450;2024-02-23T06:38:16;96104.09;;;8.79;80.22
80321;BME280;69633;47.066;15.450;2024-02-23T06:40:41;96101.84;;;8.77;80.90
80321;BME280;69633;47.066;15.450;2024-02-23T06:43:07;96103.59;;;8.69;81.45
80321;BME280;69633;47.066;15.450;2024-02-23T06:45:32;96103.03;;;8.60;81.51
80321;BME280;69633;47.066;15.450;2024-02-23T06:47:59;96108.72;;;8.62;82.00
80321;BME280;69633;47.066;15.450;2024-02-23T06:50:24;96110.75;;;8.69;81.90
80321;BME280;69633;47.066;15.450;2024-02-23T06:52:50;96104.81;;;8.76;81.42
80321;BME280;69633;47.066;15.450;2024-02-23T06:55:16;96104.81;;;8.76;81.53
80321;BME280;69633;47.066;15.450;2024-02-23T06:57:42;96105.47;;;8.69;80.99
80321;BME280;69633;47.066;15.450;2024-02-23T07:00:10;96102.25;;;8.60;81.45
80321;BME280;69633;47.066;15.450;2024-02-23T07:02:36;96110.63;;;8.62;81.60
80321;BME280;69633;47.066;15.450;2024-02-23T07:05:04;96113.66;;;8.64;81.79
80321;BME280;69633;47.066;15.450;2024-02-23T07:07:31;96125.84;;;8.68;81.42
80321;BME280;69633;47.066;15.450;2024-02-23T07:09:58;96123.66;;;8.74;81.84
80321;BME280;69633;47.066;15.450;2024-02-23T07:12:24;96127.84;;;8.75;81.30
80321;BME280;69633;47.066;15.450;2024-02-23T07:14:50;96121.44;;;8.76;80.78
80321;BME280;69633;47.066;15.450;2024-02-23T07:17:18;96122.28;;;8.80;80.77
80321;BME280;69633;47.066;15.450;2024-02-23T07:19:44;96126.16;;;8.86;80.89
80321;BME280;69633;47.066;15.450;2024-02-23T07:22:09;96128.59;;;8.95;79.96
80321;BME280;69633;47.066;15.450;2024-02-23T07:24:42;96127.81;;;8.94;79.75
80321;BME280;69633;47.066;15.450;2024-02-23T07:27:07;96125.00;;;9.06;79.98
80321;BME280;69633;47.066;15.450;2024-02-23T07:29:34;96125.84;;;9.10;79.23
80321;BME280;69633;47.066;15.450;2024-02-23T07:31:59;96135.41;;;9.18;78.88
80321;BME280;69633;47.066;15.450;2024-02-23T07:34:26;96135.81;;;9.20;78.35
80321;BME280;69633;47.066;15.450;2024-02-23T07:36:52;96139.59;;;9.19;78.62
80321;BME280;69633;47.066;15.450;2024-02-23T07:39:17;96142.28;;;9.23;78.57
80321;BME280;69633;47.066;15.450;2024-02-23T07:41:43;96141.13;;;9.20;79.00
80321;BME280;69633;47.066;15.450;2024-02-23T07:44:09;96140.69;;;9.18;79.20
80321;BME280;69633;47.066;15.450;2024-02-23T07:46:34;96146.34;;;9.17;78.56
80321;BME280;69633;47.066;15.450;2024-02-23T07:49:00;96148.63;;;9.18;79.56
80321;BME280;69633;47.066;15.450;2024-02-23T07:51:25;96154.69;;;9.19;79.33
80321;BME280;69633;47.066;15.450;2024-02-23T07:53:51;96143.34;;;9.18;79.17
80321;BME280;69633;47.066;15.450;2024-02-23T07:56:16;96140.69;;;9.18;79.32
80321;BME280;69633;47.066;15.450;2024-02-23T07:58:42;96141.19;;;9.24;79.31
80321;BME280;69633;47.066;15.450;2024-02-23T08:01:07;96146.94;;;9.30;78.78
80321;BME280;69633;47.066;15.450;2024-02-23T08:03:33;96158.22;;;9.27;79.05
80321;BME280;69633;47.066;15.450;2024-02-23T08:05:58;96159.41;;;9.29;79.13
80321;BME280;69633;47.066;15.450;2024-02-23T08:08:24;96156.50;;;9.38;79.15
80321;BME280;69633;47.066;15.450;2024-02-23T08:10:51;96159.16;;;9.38;79.06
80321;BME280;69633;47.066;15.450;2024-02-23T08:13:16;96166.41;;;9.41;78.23
80321;BME280;69633;47.066;15.450;2024-02-23T08:15:44;96170.56;;;9.42;78.02
80321;BME280;69633;47.066;15.450;2024-02-23T08:18:10;96161.91;;;9.45;78.08
80321;BME280;69633;47.066;15.450;2024-02-23T08:20:37;96163.88;;;9.48;77.77
80321;BME280;69633;47.066;15.450;2024-02-23T08:23:02;96164.28;;;9.50;77.66
80321;BME280;69633;47.066;15.450;2024-02-23T08:25:28;96167.47;;;9.59;77.47
80321;BME280;69633;47.066;15.450;2024-02-23T08:27:55;96168.50;;;9.77;77.21
80321;BME280;69633;47.066;15.450;2024-02-23T08:30:24;96171.28;;;9.88;75.98
80321;BME280;69633;47.066;15.450;2024-02-23T08:32:50;96174.91;;;10.02;75.68
80321;BME280;69633;47.066;15.450;2024-02-23T08:35:15;96159.81;;;10.06;74.96
80321;BME280;69633;47.066;15.450;2024-02-23T08:37:41;96166.41;;;10.16;75.31
80321;BME280;69633;47.066;15.450;2024-02-23T08:40:08;96161.56;;;10.22;74.28
80321;BME280;69633;47.066;15.450;2024-02-23T08:42:34;96168.34;;;10.19;73.53
80321;BME280;69633;47.066;15.450;2024-02-23T08:44:59;96159.31;;;10.24;74.23
80321;BME280;69633;47.066;15.450;2024-02-23T08:47:25;96162.34;;;10.22;73.04
80321;BME280;69633;47.066;15.450;2024-02-23T08:49:57;96154.72;;;10.21;73.82
80321;BME280;69633;47.066;15.450;2024-02-23T08:52:22;96145.66;;;10.22;73.18
80321;BME280;69633;47.066;15.450;2024-02-23T08:54:48;96142.75;;;10.30;73.26
80321;BME280;69633;47.066;15.450;2024-02-23T08:57:14;96151.63;;;10.45;72.28
80321;BME280;69633;47.066;15.450;2024-02-23T08:59:44;96144.88;;;10.51;72.11
80321;BME280;69633;47.066;15.450;2024-02-23T09:02:09;96150.75;;;10.34;72.03
80321;BME280;69633;47.066;15.450;2024-02-23T09:04:35;96166.94;;;10.29;72.42
80321;BME280;69633;47.066;15.450;2024-02-23T09:07:01;96171.19;;;10.33;73.03
80321;BME280;69633;47.066;15.450;2024-02-23T09:09:26;96162.25;;;10.45;72.68
80321;BME280;69633;47.066;15.450;2024-02-23T09:11:52;96152.34;;;10.42;73.38
80321;BME280;69633;47.066;15.450;2024-02-23T09:14:17;96155.91;;;10.53;72.71
80321;BME280;69633;47.066;15.450;2024-02-23T09:16:43;96173.66;;;10.49;72.99
80321;BME280;69633;47.066;15.450;2024-02-23T09:19:09;96173.97;;;10.44;72.70
80321;BME280;69633;47.066;15.450;2024-02-23T09:21:36;96155.81;;;10.46;73.37
80321;BME280;69633;47.066;15.450;2024-02-23T09:24:01;96146.63;;;10.40;73.23
80321;BME280;69633;47.066;15.450;2024-02-23T09:26:27;96145.09;;;10.39;73.56
80321;BME280;69633;47.066;15.450;2024-02-23T09:28:52;96150.41;;;10.39;73.84
80321;BME280;69633;47.066;15.450;2024-02-23T09:31:17;96154.00;;;10.53;72.88
80321;BME280;69633;47.066;15.450;2024-02-23T09:33:45;96155.97;;;10.60;72.76
80321;BME280;69633;47.066;15.450;2024-02-23T09:36:11;96169.59;;;10.58;72.17
80321;BME280;69633;47.066;15.450;2024-02-23T09:38:36;96171.13;;;10.59;72.67
80321;BME280;69633;47.066;15.450;2024-02-23T09:41:03;96167.41;;;10.64;72.32
80321;BME280;69633;47.066;15.450;2024-02-23T09:43:29;96157.56;;;10.64;72.53
80321;BME280;69633;47.066;15.450;2024-02-23T09:45:59;96149.22;;;10.66;72.28
80321;BME280;69633;47.066;15.450;2024-02-23T09:48:26;96155.28;;;10.66;72.41
80321;BME280;69633;47.066;15.450;2024-02-23T09:50:52;96165.56;;;10.68;71.64
80321;BME280;69633;47.066;15.450;2024-02-23T09:53:19;96176.25;;;10.75;71.99
80321;BME280;69633;47.066;15.450;2024-02-23T09:55:47;96163.22;;;10.63;71.71
80321;BME280;69633;47.066;15.450;2024-02-23T09:58:16;96158.25;;;10.61;71.77
80321;BME280;69633;47.066;15.450;2024-02-23T10:00:43;96154.38;;;10.52;73.10
80321;BME280;69633;47.066;15.450;2024-02-23T10:03:08;96160.94;;;10.65;72.29
80321;BME280;69633;47.066;15.450;2024-02-23T10:05:34;96158.31;;;10.68;72.63
80321;BME280;69633;47.066;15.450;2024-02-23T10:07:59;96160.56;;;10.63;72.59
80321;BME280;69633;47.066;15.450;2024-02-23T10:10:33;96149.53;;;10.61;72.92
80321;BME280;69633;47.066;15.450;2024-02-23T10:13:00;96153.59;;;10.51;73.20
80321;BME280;69633;47.066;15.450;2024-02-23T10:15:29;96161.81;;;10.43;73.46
80321;BME280;69633;47.066;15.450;2024-02-23T10:17:55;96153.44;;;10.37;73.96
80321;BME280;69633;47.066;15.450;2024-02-23T10:20:21;96148.91;;;10.38;74.35
80321;BME280;69633;47.066;15.450;2024-02-23T10:22:48;96157.84;;;10.26;74.01
80321;BME280;69633;47.066;15.450;2024-02-23T10:25:13;96160.03;;;10.21;75.06
80321;BME280;69633;47.066;15.450;2024-02-23T10:27:41;96165.97;;;10.14;75.00
80321;BME280;69633;47.066;15.450;2024-02-23T10:30:08;96164.13;;;10.14;75.19
80321;BME280;69633;47.066;15.450;2024-02-23T10:32:38;96154.69;;;10.17;75.36
80321;BME280;69633;47.066;15.450;2024-02-23T10:35:09;96161.59;;;10.25;74.59
80321;BME280;69633;47.066;15.450;2024-02-23T10:37:35;96153.91;;;10.16;75.19
80321;BME280;69633;47.066;15.450;2024-02-23T10:40:01;96143.53;;;10.04;75.66
80321;BME280;69633;47.066;15.450;2024-02-23T10:42:32;96133.78;;;10.12;75.99
80321;BME280;69633;47.066;15.450;2024-02-23T10:44:58;96131.94;;;10.16;75.13
80321;BME280;69633;47.066;15.450;2024-02-23T10:47:26;96131.25;;;10.19;75.04
80321;BME280;69633;47.066;15.450;2024-02-23T10:49:53;96138.03;;;10.20;75.20
80321;BME280;69633;47.066;15.450;2024-02-23T10:52:22;96134.50;;;10.12;75.16
80321;BME280;69633;47.066;15.450;2024-02-23T10:54:49;96129.84;;;10.29;74.90
80321;BME280;69633;47.066;15.450;2024-02-23T10:57:17;96123.88;;;10.39;74.81
80321;BME280;69633;47.066;15.450;2024-02-23T10:59:47;96127.69;;;10.38;74.59
80321;BME280;69633;47.066;15.450;2024-02-23T11:02:17;96122.38;;;10.38;75.01
80321;BME280;69633;47.066;15.450;2024-02-23T11:04:48;96112.38;;;10.28;75.05
80321;BME280;69633;47.066;15.450;2024-02-23T11:07:19;96123.09;;;10.35;74.85
80321;BME280;69633;47.066;15.450;2024-02-23T11:09:55;96118.84;;;10.27;75.59
80321;BME280;69633;47.066;15.450;2024-02-23T11:12:28;96115.53;;;10.37;75.47
80321;BME280;69633;47.066;15.450;2024-02-23T11:14:58;96114.56;;;10.52;75.91
80321;BME280;69633;47.066;15.450;2024-02-23T11:17:26;96116.09;;;10.53;75.03
80321;BME280;69633;47.066;15.450;2024-02-23T11:19:55;96120.69;;;10.56;75.47
80321;BME280;69633;47.066;15.450;2024-02-23T11:22:30;96109.31;;;10.55;74.74
80321;BME280;69633;47.066;15.450;2024-02-23T11:25:07;96106.75;;;10.66;75.00
80321;BME280;69633;47.066;15.450;2024-02-23T11:27:37;96109.16;;;10.78;74.45
80321;BME280;69633;47.066;15.450;2024-02-23T11:30:05;96095.53;;;10.80;75.19
80321;BME280;69633;47.066;15.450;2024-02-23T11:32:48;96097.81;;;10.81;74.33
80321;BME280;69633;47.066;15.450;2024-02-23T11:35:15;96098.69;;;10.92;74.12
80321;BME280;69633;47.066;15.450;2024-02-23T11:37:48;96098.44;;;11.08;74.41
80321;BME280;69633;47.066;15.450;2024-02-23T11:40:16;96094.38;;;11.21;74.05
80321;BME280;69633;47.066;15.450;2024-02-23T11:42:42;96088.41;;;11.31;73.28
80321;BME280;69633;47.066;15.450;2024-02-23T11:45:09;96090.22;;;11.24;73.56
80321;BME280;69633;47.066;15.450;2024-02-23T11:47:37;96089.50;;;11.30;72.63
80321;BME280;69633;47.066;15.450;2024-02-23T11:50:07;96095.66;;;11.38;72.15
80321;BME280;69633;47.066;15.450;2024-02-23T11:52:33;96081.69;;;11.51;71.93
80321;BME280;69633;47.066;15.450;2024-02-23T11:54:59;96079.00;;;11.48;71.87
80321;BME280;69633;47.066;15.450;2024-02-23T11:57:24;96078.38;;;11.65;71.04
80321;BME280;69633;47.066;15.450;2024-02-23T11:59:51;96081.88;;;11.73;70.02
80321;BME280;69633;47.066;15.450;2024-02-23T12:02:17;96078.75;;;11.63;68.05
80321;BME280;69633;47.066;15.450;2024-02-23T12:04:43;96086.97;;;11.48;68.78
80321;BME280;69633;47.066;15.450;2024-02-23T12:07:08;96074.09;;;11.50;69.69
80321;BME280;69633;47.066;15.450;2024-02-23T12:09:34;96074.03;;;11.39;68.30
80321;BME280;69633;47.066;15.450;2024-02-23T12:12:00;96068.72;;;11.39;68.34
80321;BME280;69633;47.066;15.450;2024-02-23T12:14:25;96076.22;;;11.27;69.16
80321;BME280;69633;47.066;15.450;2024-02-23T12:16:52;96070.09;;;11.23;68.23
80321;BME280;69633;47.066;15.450;2024-02-23T12:19:19;96074.00;;;11.36;69.06
80321;BME280;69633;47.066;15.450;2024-02-23T12:21:45;96060.03;;;11.46;67.76
80321;BME280;69633;47.066;15.450;2024-02-23T12:24:12;96058.78;;;11.33;68.38
80321;BME280;69633;47.066;15.450;2024-02-23T12:26:37;96063.34;;;11.32;69.01
80321;BME280;69633;47.066;15.450;2024-02-23T12:29:03;96057.66;;;11.30;68.90
80321;BME280;69633;47.066;15.450;2024-02-23T12:31:31;96057.09;;;11.10;68.47
80321;BME280;69633;47.066;15.450;2024-02-23T12:33:57;96053.44;;;11.26;67.70
80321;BME280;69633;47.066;15.450;2024-02-23T12:36:23;96052.63;;;11.22;68.82
80321;BME280;69633;47.066;15.450;2024-02-23T12:38:49;96046.63;;;11.25;68.32
80321;BME280;69633;47.066;15.450;2024-02-23T12:41:14;96041.34;;;11.32;68.78
80321;BME280;69633;47.066;15.450;2024-02-23T12:43:41;96039.13;;;11.41;68.60
80321;BME280;69633;47.066;15.450;2024-02-23T12:46:06;96033.47;;;11.46;67.89
80321;BME280;69633;47.066;15.450;2024-02-23T12:48:34;96023.97;;;11.45;68.86
80321;BME280;69633;47.066;15.450;2024-02-23T12:51:00;96025.88;;;11.48;68.60